sensor_id;sensor_type;location;lat;lon;timestamp;pressure;altitude;pressure_sealevel;temperature;humidity
13015;BME280;6573;57.696;11.950;2022-08-03T00:01:44;101101.25;;;18.63;100.00
13015;BME280;6573;57.696;11.950;2022-08-03T00:04:12;101118.09;;;18.63;100.00
13015;BME280;6573;57.696;11.950;2022-08-03T00:06:40;101103.06;;;18.61;100.00
13015;BME280;6573;57.696;11.950;2022-08-03T00:09:10;101109.97;;;18.68;100.00
13015;BME280;6573;57.696;11.950;2022-08-03T00:11:38;101109.03;;;18.69;100.00
13015;BME280;6573;57.696;11.950;2022-08-03T00:14:07;101116.06;;;18.71;100.00
13015;BME280;6573;57.696;11.950;2022-08-03T00:16:36;101102.88;;;18.67;100.00
13015;BME280;6573;57.696;11.950;2022-08-03T00:19:04;101100.00;;;18.73;100.00
13015;BME280;6573;57.696;11.950;2022-08-03T00:21:32;101096.50;;;18.72;100.00
13015;BME280;6573;57.696;11.950;2022-08-03T00:24:00;101105.25;;;18.76;100.00
13015;BME280;6573;57.696;11.950;2022-08-03T00:26:29;101104.34;;;18.77;100.00
13015;BME280;6573;57.696;11.950;2022-08-03T00:28:58;101091.16;;;18.72;100.00
13015;BME280;6573;57.696;11.950;2022-08-03T00:31:26;101104.25;;;18.80;100.00
13015;BME280;6573;57.696;11.950;2022-08-03T00:34:14;101102.50;;;18.79;100.00
13015;BME280;6573;57.696;11.950;2022-08-03T00:36:55;101107.72;;;18.82;100.00
13015;BME280;6573;57.696;11.950;2022-08-03T00:39:23;101102.31;;;18.85;100.00
13015;BME280;6573;57.696;11.950;2022-08-03T00:41:53;101095.31;;;18.81;100.00
13015;BME280;6573;57.696;11.950;2022-08-03T00:44:21;101096.84;;;18.88;100.00
13015;BME280;6573;57.696;11.950;2022-08-03T00:46:49;101100.38;;;18.90;100.00
13015;BME280;6573;57.696;11.950;2022-08-03T00:49:18;101102.97;;;18.92;100.00
13015;BME280;6573;57.696;11.950;2022-08-03T00:51:46;101100.38;;;18.90;100.00
13015;BME280;6573;57.696;11.950;2022-08-03T00:54:15;101084.66;;;18.81;100.00
13015;BME280;6573;57.696;11.950;2022-08-03T00:56:43;101093.28;;;18.89;100.00
13015;BME280;6573;57.696;11.950;2022-08-03T00:59:29;101082.72;;;18.86;100.00
13015;BME280;6573;57.696;11.950;2022-08-03T01:01:57;101100.38;;;18.90;100.00
13015;BME280;6573;57.696;11.950;2022-08-03T01:04:27;101088.03;;;18.86;100.00
13015;BME280;6573;57.696;11.950;2022-08-03T01:07:02;101091.44;;;18.91;100.00
13015;BME280;6573;57.696;11.950;2022-08-03T01:09:42;101093.28;;;18.89;100.00
13015;BME280;6573;57.696;11.950;2022-08-03T01:12:18;101065.34;;;18.73;100.00
13015;BME280;6573;57.696;11.950;2022-08-03T01:14:57;101093.19;;;18.92;100.00
13015;BME280;6573;57.696;11.950;2022-08-03T01:17:31;101085.19;;;18.92;100.00
13015;BME280;6573;57.696;11.950;2022-08-03T01:20:04;101090.38;;;18.97;100.00
13015;BME280;6573;57.696;11.950;2022-08-03T01:22:48;101093.19;;;18.92;100.00
13015;BME280;6573;57.696;11.950;2022-08-03T01:25:30;101094.91;;;18.93;100.00
13015;BME280;6573;57.696;11.950;2022-08-03T01:28:19;101081.75;;;18.89;100.00
13015;BME280;6573;57.696;11.950;2022-08-03T01:30:52;101089.72;;;18.90;100.00
13015;BME280;6573;57.696;11.950;2022-08-03T01:33:24;101096.66;;;18.94;100.00
13015;BME280;6573;57.696;11.950;2022-08-03T01:35:58;101098.44;;;18.95;100.00
13015;BME280;6573;57.696;11.950;2022-08-03T01:38:30;101084.47;;;18.87;100.00
13015;BME280;6573;57.696;11.950;2022-08-03T01:41:04;101099.41;;;18.93;100.00
13015;BME280;6573;57.696;11.950;2022-08-03T01:43:35;101086.06;;;18.93;100.00
13015;BME280;6573;57.696;11.950;2022-08-03T01:46:27;101084.16;;;18.96;100.00
13015;BME280;6573;57.696;11.950;2022-08-03T01:48:57;101088.59;;;18.97;100.00
13015;BME280;6573;57.696;11.950;2022-08-03T01:51:36;101080.59;;;18.97;100.00
13015;BME280;6573;57.696;11.950;2022-08-03T01:54:25;101075.25;;;18.97;100.00
13015;BME280;6573;57.696;11.950;2022-08-03T01:56:56;101078.72;;;18.99;100.00
13015;BME280;6573;57.696;11.950;2022-08-03T01:59:27;101082.22;;;19.01;100.00
13015;BME280;6573;57.696;11.950;2022-08-03T02:01:58;101084.06;;;18.99;100.00
13015;BME280;6573;57.696;11.950;2022-08-03T02:04:47;101071.63;;;18.98;100.00
13015;BME280;6573;57.696;11.950;2022-08-03T02:07:18;101076.97;;;18.98;100.00
13015;BME280;6573;57.696;11.950;2022-08-03T02:09:50;101050.81;;;18.83;100.00
13015;BME280;6573;57.696;11.950;2022-08-03T02:12:21;101068.06;;;18.99;100.00
13015;BME280;6573;57.696;11.950;2022-08-03T02:14:50;101074.94;;;19.06;100.00
13015;BME280;6573;57.696;11.950;2022-08-03T02:17:23;101068.88;;;19.01;100.00
13015;BME280;6573;57.696;11.950;2022-08-03T02:20:07;101060.97;;;18.98;100.00
13015;BME280;6573;57.696;11.950;2022-08-03T02:22:39;101067.84;;;19.05;100.00
13015;BME280;6573;57.696;11.950;2022-08-03T02:25:08;101062.31;;;19.11;100.00
13015;BME280;6573;57.696;11.950;2022-08-03T02:27:39;101059.59;;;19.13;100.00
13015;BME280;6573;57.696;11.950;2022-08-03T02:30:11;101059.66;;;19.11;100.00
13015;BME280;6573;57.696;11.950;2022-08-03T02:32:45;101058.75;;;19.12;100.00
13015;BME280;6573;57.696;11.950;2022-08-03T02:35:16;101057.88;;;19.10;100.00
13015;BME280;6573;57.696;11.950;2022-08-03T02:37:49;101023.78;;;18.95;100.00
13015;BME280;6573;57.696;11.950;2022-08-03T02:40:19;101055.13;;;19.13;100.00
13015;BME280;6573;57.696;11.950;2022-08-03T02:42:52;101054.22;;;19.14;100.00
13015;BME280;6573;57.696;11.950;2022-08-03T02:45:23;101056.78;;;19.17;100.00
13015;BME280;6573;57.696;11.950;2022-08-03T02:47:58;101058.50;;;19.18;100.00
13015;BME280;6573;57.696;11.950;2022-08-03T02:50:30;101054.84;;;19.22;100.00
13015;BME280;6573;57.696;11.950;2022-08-03T02:53:03;101048.63;;;19.22;100.00
13015;BME280;6573;57.696;11.950;2022-08-03T02:55:33;101060.03;;;19.25;100.00
13015;BME280;6573;57.696;11.950;2022-08-03T02:58:10;101049.59;;;19.19;100.00
13015;BME280;6573;57.696;11.950;2022-08-03T03:00:40;101040.66;;;19.20;100.00
13015;BME280;6573;57.696;11.950;2022-08-03T03:03:12;101047.53;;;19.27;100.00
13015;BME280;6573;57.696;11.950;2022-08-03T03:05:44;101038.69;;;19.25;100.00
13015;BME280;6573;57.696;11.950;2022-08-03T03:08:23;101041.38;;;19.25;100.00
13015;BME280;6573;57.696;11.950;2022-08-03T03:10:55;101040.34;;;19.29;100.00
13015;BME280;6573;57.696;11.950;2022-08-03T03:13:25;101042.06;;;19.30;100.00
13015;BME280;6573;57.696;11.950;2022-08-03T03:15:55;101035.03;;;19.29;100.00
13015;BME280;6573;57.696;11.950;2022-08-03T03:18:26;101035.84;;;19.31;100.00
13015;BME280;6573;57.696;11.950;2022-08-03T03:20:55;101034.91;;;19.32;100.00
13015;BME280;6573;57.696;11.950;2022-08-03T03:23:25;101027.72;;;19.34;100.00
13015;BME280;6573;57.696;11.950;2022-08-03T03:25:55;101026.06;;;19.30;100.00
13015;BME280;6573;57.696;11.950;2022-08-03T03:28:25;101015.53;;;19.27;100.00
13015;BME280;6573;57.696;11.950;2022-08-03T03:30:53;101032.19;;;19.34;100.00
13015;BME280;6573;57.696;11.950;2022-08-03T03:33:22;101014.41;;;19.33;100.00
13015;BME280;6573;57.696;11.950;2022-08-03T03:35:56;100999.41;;;19.30;100.00
13015;BME280;6573;57.696;11.950;2022-08-03T03:38:25;101004.63;;;19.33;100.00
13015;BME280;6573;57.696;11.950;2022-08-03T03:40:54;101003.81;;;19.31;100.00
13015;BME280;6573;57.696;11.950;2022-08-03T03:43:23;101003.00;;;19.29;100.00
13015;BME280;6573;57.696;11.950;2022-08-03T03:45:51;101006.38;;;19.34;100.00
13015;BME280;6573;57.696;11.950;2022-08-03T03:48:23;100971.53;;;19.14;100.00
13015;BME280;6573;57.696;11.950;2022-08-03T03:50:51;101002.03;;;19.32;100.00
13015;BME280;6573;57.696;11.950;2022-08-03T03:53:21;100994.06;;;19.30;100.00
13015;BME280;6573;57.696;11.950;2022-08-03T03:55:51;101002.78;;;19.35;100.00
13015;BME280;6573;57.696;11.950;2022-08-03T03:58:29;100999.22;;;19.36;100.00
13015;BME280;6573;57.696;11.950;2022-08-03T04:00:57;100999.22;;;19.36;100.00
13015;BME280;6573;57.696;11.950;2022-08-03T04:03:26;100996.63;;;19.33;100.00
13015;BME280;6573;57.696;11.950;2022-08-03T04:05:55;100990.59;;;19.28;100.00
13015;BME280;6573;57.696;11.950;2022-08-03T04:08:42;100993.34;;;19.25;100.00
13015;BME280;6573;57.696;11.950;2022-08-03T04:11:35;100987.09;;;19.26;100.00
13015;BME280;6573;57.696;11.950;2022-08-03T04:14:10;100973.25;;;19.15;100.00
13015;BME280;6573;57.696;11.950;2022-08-03T04:16:42;100975.72;;;19.21;100.00
13015;BME280;6573;57.696;11.950;2022-08-03T04:19:16;100974.69;;;19.25;100.00
13015;BME280;6573;57.696;11.950;2022-08-03T04:21:51;100935.50;;;19.27;100.00
13015;BME280;6573;57.696;11.950;2022-08-03T04:24:27;100920.25;;;19.31;100.00
13015;BME280;6573;57.696;11.950;2022-08-03T04:26:58;100912.31;;;19.29;100.00
13015;BME280;6573;57.696;11.950;2022-08-03T04:29:28;100908.59;;;19.33;100.00
13015;BME280;6573;57.696;11.950;2022-08-03T04:31:59;100902.66;;;19.25;100.00
13015;BME280;6573;57.696;11.950;2022-08-03T04:34:29;100908.53;;;19.36;100.00
13015;BME280;6573;57.696;11.950;2022-08-03T04:36:59;100915.56;;;19.37;100.00
13015;BME280;6573;57.696;11.950;2022-08-03T04:39:30;100919.09;;;19.40;100.00
13015;BME280;6573;57.696;11.950;2022-08-03T04:42:02;100917.31;;;19.38;100.00
13015;BME280;6573;57.696;11.950;2022-08-03T04:44:36;100911.88;;;19.42;100.00
13015;BME280;6573;57.696;11.950;2022-08-03T04:47:05;100871.91;;;19.15;100.00
13015;BME280;6573;57.696;11.950;2022-08-03T04:49:35;100918.13;;;19.41;100.00
13015;BME280;6573;57.696;11.950;2022-08-03T04:52:03;100926.91;;;19.44;100.00
13015;BME280;6573;57.696;11.950;2022-08-03T04:54:40;100923.44;;;19.42;100.00
13015;BME280;6573;57.696;11.950;2022-08-03T04:57:16;100918.84;;;19.46;100.00
13015;BME280;6573;57.696;11.950;2022-08-03T04:59:49;100912.59;;;19.47;100.00
13015;BME280;6573;57.696;11.950;2022-08-03T05:02:28;100922.31;;;19.48;100.00
13015;BME280;6573;57.696;11.950;2022-08-03T05:04:56;100926.66;;;19.50;100.00
13015;BME280;6573;57.696;11.950;2022-08-03T05:07:25;100917.81;;;19.50;100.00
13015;BME280;6573;57.696;11.950;2022-08-03T05:10:04;100936.25;;;19.56;100.00
13015;BME280;6573;57.696;11.950;2022-08-03T05:12:42;100941.56;;;19.56;100.00
13015;BME280;6573;57.696;11.950;2022-08-03T05:15:11;100923.16;;;19.50;100.00
13015;BME280;6573;57.696;11.950;2022-08-03T05:17:39;100930.91;;;19.56;100.00
13015;BME280;6573;57.696;11.950;2022-08-03T05:20:09;100930.91;;;19.56;0.00
13015;BME280;6573;57.696;11.950;2022-08-03T05:22:38;100941.69;;;19.53;0.00
13015;BME280;6573;57.696;11.950;2022-08-03T05:25:08;100938.91;;;19.56;0.00
13015;BME280;6573;57.696;11.950;2022-08-03T05:27:45;100939.59;;;19.61;0.00
13015;BME280;6573;57.696;11.950;2022-08-03T05:30:13;100935.31;;;19.57;0.00
13015;BME280;6573;57.696;11.950;2022-08-03T05:33:00;100941.47;;;19.59;0.00
13015;BME280;6573;57.696;11.950;2022-08-03T05:35:29;100908.28;;;19.43;0.00
13015;BME280;6573;57.696;11.950;2022-08-03T05:38:17;100941.53;;;19.57;0.00
13015;BME280;6573;57.696;11.950;2022-08-03T05:41:00;100933.63;;;19.54;0.00
13015;BME280;6573;57.696;11.950;2022-08-03T05:43:48;100925.56;;;19.56;0.00
13015;BME280;6573;57.696;11.950;2022-08-03T05:46:16;100933.34;;;19.62;0.00
13015;BME280;6573;57.696;11.950;2022-08-03T05:48:44;100918.50;;;19.55;0.00
13015;BME280;6573;57.696;11.950;2022-08-03T05:51:12;100923.38;;;19.67;0.00
13015;BME280;6573;57.696;11.950;2022-08-03T05:53:41;100921.50;;;19.69;0.00
13015;BME280;6573;57.696;11.950;2022-08-03T05:56:10;100927.75;;;19.68;0.00
13015;BME280;6573;57.696;11.950;2022-08-03T05:58:43;100918.91;;;19.67;0.00
13015;BME280;6573;57.696;11.950;2022-08-03T06:01:13;100924.00;;;19.73;0.00
13015;BME280;6573;57.696;11.950;2022-08-03T06:03:41;100924.75;;;19.77;0.00
13015;BME280;6573;57.696;11.950;2022-08-03T06:06:09;100913.13;;;19.78;0.00
13015;BME280;6573;57.696;11.950;2022-08-03T06:08:38;100915.06;;;19.74;0.00
13015;BME280;6573;57.696;11.950;2022-08-03T06:11:06;100939.78;;;19.79;0.00
13015;BME280;6573;57.696;11.950;2022-08-03T06:13:37;100937.03;;;19.81;0.00
13015;BME280;6573;57.696;11.950;2022-08-03T06:16:08;100938.91;;;19.79;0.00
13015;BME280;6573;57.696;11.950;2022-08-03T06:18:37;100940.53;;;19.83;0.00
13015;BME280;6573;57.696;11.950;2022-08-03T06:21:06;100935.06;;;19.86;0.00
13015;BME280;6573;57.696;11.950;2022-08-03T06:23:42;100929.84;;;19.83;0.00
13015;BME280;6573;57.696;11.950;2022-08-03T06:26:22;100934.09;;;19.88;0.00
13015;BME280;6573;57.696;11.950;2022-08-03T06:28:53;100930.41;;;19.91;0.00
13015;BME280;6573;57.696;11.950;2022-08-03T06:31:25;100936.56;;;19.93;0.00
13015;BME280;6573;57.696;11.950;2022-08-03T06:34:00;100934.59;;;19.98;0.00
13015;BME280;6573;57.696;11.950;2022-08-03T06:36:48;100930.81;;;20.03;0.00
13015;BME280;6573;57.696;11.950;2022-08-03T06:39:18;100935.97;;;20.08;0.00
13015;BME280;6573;57.696;11.950;2022-08-03T06:41:49;100935.59;;;20.17;0.00
13015;BME280;6573;57.696;11.950;2022-08-03T06:44:19;100932.00;;;20.18;0.00
13015;BME280;6573;57.696;11.950;2022-08-03T06:46:48;100944.19;;;20.25;0.00
13015;BME280;6573;57.696;11.950;2022-08-03T06:49:16;100945.94;;;20.26;0.00
13015;BME280;6573;57.696;11.950;2022-08-03T06:51:45;100946.63;;;20.31;0.00
13015;BME280;6573;57.696;11.950;2022-08-03T06:54:33;100926.06;;;20.33;0.00
13015;BME280;6573;57.696;11.950;2022-08-03T06:57:02;100938.47;;;20.34;0.00
13015;BME280;6573;57.696;11.950;2022-08-03T06:59:32;100948.44;;;20.31;0.00
13015;BME280;6573;57.696;11.950;2022-08-03T07:02:20;100933.50;;;20.25;0.00
13015;BME280;6573;57.696;11.950;2022-08-03T07:04:48;100931.53;;;20.30;0.00
13015;BME280;6573;57.696;11.950;2022-08-03T07:07:16;100922.44;;;20.34;0.00
13015;BME280;6573;57.696;11.950;2022-08-03T07:09:45;100938.47;;;20.34;0.46
13015;BME280;6573;57.696;11.950;2022-08-03T07:12:25;100926.28;;;20.27;3.16
13015;BME280;6573;57.696;11.950;2022-08-03T07:14:56;100930.44;;;20.34;5.56
13015;BME280;6573;57.696;11.950;2022-08-03T07:17:30;100935.69;;;20.37;8.44
13015;BME280;6573;57.696;11.950;2022-08-03T07:20:00;100934.75;;;20.38;12.09
13015;BME280;6573;57.696;11.950;2022-08-03T07:22:29;100929.41;;;20.38;15.54
13015;BME280;6573;57.696;11.950;2022-08-03T07:24:57;100913.50;;;20.35;18.72
13015;BME280;6573;57.696;11.950;2022-08-03T07:27:26;100934.50;;;20.44;21.71
13015;BME280;6573;57.696;11.950;2022-08-03T07:29:57;100940.81;;;20.42;25.04
13015;BME280;6573;57.696;11.950;2022-08-03T07:32:26;100938.91;;;20.45;28.13
13015;BME280;6573;57.696;11.950;2022-08-03T07:34:54;100951.41;;;20.45;31.30
13015;BME280;6573;57.696;11.950;2022-08-03T07:37:27;100942.69;;;20.40;34.30
13015;BME280;6573;57.696;11.950;2022-08-03T07:39:56;100938.13;;;20.43;36.70
13015;BME280;6573;57.696;11.950;2022-08-03T07:42:24;100932.75;;;20.43;39.05
13015;BME280;6573;57.696;11.950;2022-08-03T07:44:52;100915.38;;;20.33;41.39
13015;BME280;6573;57.696;11.950;2022-08-03T07:47:23;100927.66;;;20.37;43.54
13015;BME280;6573;57.696;11.950;2022-08-03T07:50:01;100905.47;;;20.35;44.80
13015;BME280;6573;57.696;11.950;2022-08-03T07:52:30;100924.06;;;20.38;44.65
13015;BME280;6573;57.696;11.950;2022-08-03T07:55:18;100918.84;;;20.35;45.60
13015;BME280;6573;57.696;11.950;2022-08-03T07:57:47;100915.25;;;20.36;45.53
13015;BME280;6573;57.696;11.950;2022-08-03T08:00:25;100918.16;;;20.30;45.42
13015;BME280;6573;57.696;11.950;2022-08-03T08:02:55;100915.97;;;20.18;46.22
13015;BME280;6573;57.696;11.950;2022-08-03T08:05:23;100927.78;;;20.34;47.12
13015;BME280;6573;57.696;11.950;2022-08-03T08:07:52;100932.13;;;20.37;47.56
13015;BME280;6573;57.696;11.950;2022-08-03T08:10:20;100915.09;;;20.39;47.20
13015;BME280;6573;57.696;11.950;2022-08-03T08:12:48;100922.94;;;20.44;47.33
13015;BME280;6573;57.696;11.950;2022-08-03T08:15:18;100923.78;;;20.44;47.44
13015;BME280;6573;57.696;11.950;2022-08-03T08:17:48;100921.19;;;20.43;48.34
13015;BME280;6573;57.696;11.950;2022-08-03T08:20:22;100922.06;;;20.43;49.26
13015;BME280;6573;57.696;11.950;2022-08-03T08:22:58;100894.13;;;20.30;50.26
13015;BME280;6573;57.696;11.950;2022-08-03T08:25:29;100917.47;;;20.47;50.89
13015;BME280;6573;57.696;11.950;2022-08-03T08:27:58;100911.13;;;20.49;52.07
13015;BME280;6573;57.696;11.950;2022-08-03T08:30:48;100917.00;;;20.57;53.21
13015;BME280;6573;57.696;11.950;2022-08-03T08:33:17;100915.81;;;20.64;54.91
13015;BME280;6573;57.696;11.950;2022-08-03T08:35:51;100902.44;;;20.64;57.92
13015;BME280;6573;57.696;11.950;2022-08-03T08:38:20;100894.97;;;20.73;61.19
13015;BME280;6573;57.696;11.950;2022-08-03T08:40:49;100904.22;;;20.86;65.20
13015;BME280;6573;57.696;11.950;2022-08-03T08:43:17;100901.78;;;21.00;69.41
13015;BME280;6573;57.696;11.950;2022-08-03T08:45:47;100889.09;;;21.05;75.52
13015;BME280;6573;57.696;11.950;2022-08-03T08:48:21;100900.59;;;21.07;82.45
13015;BME280;6573;57.696;11.950;2022-08-03T08:50:53;100904.91;;;21.11;90.62
13015;BME280;6573;57.696;11.950;2022-08-03T08:53:25;100896.66;;;21.15;99.27
13015;BME280;6573;57.696;11.950;2022-08-03T08:55:58;100902.91;;;21.16;100.00
13015;BME280;6573;57.696;11.950;2022-08-03T08:58:28;100901.00;;;21.18;100.00
13015;BME280;6573;57.696;11.950;2022-08-03T09:00:58;100903.03;;;21.32;100.00
13015;BME280;6573;57.696;11.950;2022-08-03T09:03:26;100896.81;;;21.31;100.00
13015;BME280;6573;57.696;11.950;2022-08-03T09:05:58;100895.09;;;21.30;100.00
13015;BME280;6573;57.696;11.950;2022-08-03T09:08:29;100896.97;;;21.28;100.00
13015;BME280;6573;57.696;11.950;2022-08-03T09:10:57;100915.72;;;21.28;100.00
13015;BME280;6573;57.696;11.950;2022-08-03T09:13:25;100906.94;;;21.24;100.00
13015;BME280;6573;57.696;11.950;2022-08-03T09:16:08;100909.84;;;21.20;100.00
13015;BME280;6573;57.696;11.950;2022-08-03T09:18:38;100909.69;;;21.23;100.00
13015;BME280;6573;57.696;11.950;2022-08-03T09:21:15;100904.22;;;21.26;100.00
13015;BME280;6573;57.696;11.950;2022-08-03T09:23:59;100889.88;;;21.27;100.00
13015;BME280;6573;57.696;11.950;2022-08-03T09:26:32;100893.88;;;21.37;100.00
13015;BME280;6573;57.696;11.950;2022-08-03T09:29:02;100892.06;;;21.38;100.00
13015;BME280;6573;57.696;11.950;2022-08-03T09:31:40;100875.28;;;21.34;100.00
13015;BME280;6573;57.696;11.950;2022-08-03T09:34:10;100905.69;;;21.33;100.00
13015;BME280;6573;57.696;11.950;2022-08-03T09:36:42;100910.84;;;21.36;100.00
13015;BME280;6573;57.696;11.950;2022-08-03T09:39:12;100903.66;;;21.38;100.00
13015;BME280;6573;57.696;11.950;2022-08-03T09:41:44;100887.44;;;21.41;100.00
13015;BME280;6573;57.696;11.950;2022-08-03T09:44:13;100877.19;;;21.51;100.00
13015;BME280;6573;57.696;11.950;2022-08-03T09:46:52;100893.25;;;21.69;100.00
13015;BME280;6573;57.696;11.950;2022-08-03T09:49:21;100892.97;;;21.75;100.00
13015;BME280;6573;57.696;11.950;2022-08-03T09:51:52;100884.84;;;21.77;100.00
13015;BME280;6573;57.696;11.950;2022-08-03T09:54:41;100892.81;;;21.78;100.00
13015;BME280;6573;57.696;11.950;2022-08-03T09:57:20;100882.41;;;21.72;100.00
13015;BME280;6573;57.696;11.950;2022-08-03T09:59:50;100898.00;;;21.81;100.00
13015;BME280;6573;57.696;11.950;2022-08-03T10:02:30;100899.91;;;21.79;100.00
13015;BME280;6573;57.696;11.950;2022-08-03T10:04:58;100885.72;;;21.77;100.00
13015;BME280;6573;57.696;11.950;2022-08-03T10:07:28;100881.81;;;21.84;100.00
13015;BME280;6573;57.696;11.950;2022-08-03T10:09:57;100885.41;;;21.83;100.00
13015;BME280;6573;57.696;11.950;2022-08-03T10:12:46;100889.09;;;21.81;100.00
13015;BME280;6573;57.696;11.950;2022-08-03T10:15:15;100900.78;;;21.80;100.00
13015;BME280;6573;57.696;11.950;2022-08-03T10:18:04;100908.88;;;21.78;100.00
13015;BME280;6573;57.696;11.950;2022-08-03T10:20:36;100903.50;;;21.78;100.00
13015;BME280;6573;57.696;11.950;2022-08-03T10:23:07;100907.28;;;21.74;100.00
13015;BME280;6573;57.696;11.950;2022-08-03T10:25:37;100905.84;;;21.67;100.00
13015;BME280;6573;57.696;11.950;2022-08-03T10:28:07;100898.88;;;21.63;100.00
13015;BME280;6573;57.696;11.950;2022-08-03T10:30:40;100891.06;;;21.59;100.00
13015;BME280;6573;57.696;11.950;2022-08-03T10:33:16;100886.88;;;21.53;100.00
13015;BME280;6573;57.696;11.950;2022-08-03T10:36:05;100886.72;;;21.56;100.00
13015;BME280;6573;57.696;11.950;2022-08-03T10:38:38;100890.06;;;21.61;100.00
13015;BME280;6573;57.696;11.950;2022-08-03T10:41:08;100888.75;;;21.70;100.00
13015;BME280;6573;57.696;11.950;2022-08-03T10:43:43;100883.69;;;21.64;100.00
13015;BME280;6573;57.696;11.950;2022-08-03T10:46:18;100883.25;;;21.54;100.00
13015;BME280;6573;57.696;11.950;2022-08-03T10:48:47;100898.88;;;21.63;100.00
13015;BME280;6573;57.696;11.950;2022-08-03T10:51:18;100893.25;;;21.69;100.00
13015;BME280;6573;57.696;11.950;2022-08-03T10:53:48;100909.75;;;21.60;100.00
13015;BME280;6573;57.696;11.950;2022-08-03T10:56:47;100908.56;;;21.47;100.00
13015;BME280;6573;57.696;11.950;2022-08-03T10:59:59;100885.72;;;21.40;100.00
13015;BME280;6573;57.696;11.950;2022-08-03T11:03:00;100891.63;;;21.28;100.00
13015;BME280;6573;57.696;11.950;2022-08-03T11:05:32;100884.66;;;21.24;100.00
13015;BME280;6573;57.696;11.950;2022-08-03T11:08:27;100898.13;;;21.22;100.00
13015;BME280;6573;57.696;11.950;2022-08-03T11:10:59;100901.31;;;21.31;100.00
13015;BME280;6573;57.696;11.950;2022-08-03T11:13:29;100899.44;;;21.33;100.00
13015;BME280;6573;57.696;11.950;2022-08-03T11:16:03;100899.97;;;21.41;100.00
13015;BME280;6573;57.696;11.950;2022-08-03T11:18:55;100883.09;;;21.39;100.00
13015;BME280;6573;57.696;11.950;2022-08-03T11:21:54;100896.59;;;21.56;100.00
13015;BME280;6573;57.696;11.950;2022-08-03T11:24:57;100896.72;;;21.71;100.00
13015;BME280;6573;57.696;11.950;2022-08-03T11:27:28;100898.69;;;21.86;100.00
13015;BME280;6573;57.696;11.950;2022-08-03T11:29:58;100902.53;;;22.00;100.00
13015;BME280;6573;57.696;11.950;2022-08-03T11:32:57;100900.34;;;22.08;100.00
13015;BME280;6573;57.696;11.950;2022-08-03T11:35:27;100899.16;;;22.13;100.00
13015;BME280;6573;57.696;11.950;2022-08-03T11:38:04;100891.72;;;22.20;100.00
13015;BME280;6573;57.696;11.950;2022-08-03T11:40:42;100913.19;;;22.37;100.00
13015;BME280;6573;57.696;11.950;2022-08-03T11:46:15;100903.22;;;22.22;100.00
13015;BME280;6573;57.696;11.950;2022-08-03T11:49:03;100912.19;;;22.21;100.00
13015;BME280;6573;57.696;11.950;2022-08-03T11:51:35;100913.78;;;22.25;100.00
13015;BME280;6573;57.696;11.950;2022-08-03T11:54:06;100920.72;;;22.29;100.00
13015;BME280;6573;57.696;11.950;2022-08-03T11:56:44;100921.75;;;22.26;100.00
13015;BME280;6573;57.696;11.950;2022-08-03T11:59:14;100908.44;;;22.25;100.00
13015;BME280;6573;57.696;11.950;2022-08-03T12:01:49;100910.16;;;22.26;100.00
13015;BME280;6573;57.696;11.950;2022-08-03T12:04:18;100865.16;;;21.97;100.00
13015;BME280;6573;57.696;11.950;2022-08-03T12:06:58;100922.47;;;22.30;100.00
13015;BME280;6573;57.696;11.950;2022-08-03T12:09:27;100924.84;;;22.36;100.00
13015;BME280;6573;57.696;11.950;2022-08-03T12:11:55;100918.69;;;22.34;100.00
13015;BME280;6573;57.696;11.950;2022-08-03T12:14:27;100892.50;;;22.22;100.00
13015;BME280;6573;57.696;11.950;2022-08-03T12:17:17;100918.53;;;22.37;100.00
13015;BME280;6573;57.696;11.950;2022-08-03T12:19:46;100920.69;;;22.47;100.00
13015;BME280;6573;57.696;11.950;2022-08-03T12:22:14;100923.16;;;22.52;100.00
13015;BME280;6573;57.696;11.950;2022-08-03T12:24:44;100921.09;;;22.57;100.00
13015;BME280;6573;57.696;11.950;2022-08-03T12:27:22;100926.13;;;22.46;100.00
13015;BME280;6573;57.696;11.950;2022-08-03T12:29:52;100928.66;;;22.49;100.00
13015;BME280;6573;57.696;11.950;2022-08-03T12:32:26;100919.81;;;22.47;100.00
13015;BME280;6573;57.696;11.950;2022-08-03T12:34:56;100919.81;;;22.47;100.00
13015;BME280;6573;57.696;11.950;2022-08-03T12:37:27;100919.03;;;22.45;100.00
13015;BME280;6573;57.696;11.950;2022-08-03T12:39:59;100921.88;;;22.42;100.00
13015;BME280;6573;57.696;11.950;2022-08-03T12:42:36;100916.50;;;22.42;100.00
13015;BME280;6573;57.696;11.950;2022-08-03T12:45:17;100917.75;;;22.35;100.00
13015;BME280;6573;57.696;11.950;2022-08-03T12:47:52;100904.41;;;22.33;100.00
13015;BME280;6573;57.696;11.950;2022-08-03T12:50:27;100918.41;;;22.40;100.00
13015;BME280;6573;57.696;11.950;2022-08-03T12:52:58;100921.41;;;22.51;100.00
13015;BME280;6573;57.696;11.950;2022-08-03T12:55:27;100911.00;;;22.45;100.00
13015;BME280;6573;57.696;11.950;2022-08-03T12:58:29;100926.16;;;22.63;100.00
13015;BME280;6573;57.696;11.950;2022-08-03T13:01:01;100918.31;;;22.77;100.00
13015;BME280;6573;57.696;11.950;2022-08-03T13:03:40;100918.75;;;22.85;100.00
13015;BME280;6573;57.696;11.950;2022-08-03T13:06:17;100899.19;;;22.66;100.00
13015;BME280;6573;57.696;11.950;2022-08-03T13:08:46;100928.56;;;22.86;100.00
13015;BME280;6573;57.696;11.950;2022-08-03T13:11:19;100923.19;;;22.86;100.00
13015;BME280;6573;57.696;11.950;2022-08-03T13:13:48;100916.63;;;22.92;100.00
13015;BME280;6573;57.696;11.950;2022-08-03T13:16:16;100921.66;;;22.98;100.00
13015;BME280;6573;57.696;11.950;2022-08-03T13:18:48;100922.53;;;22.98;100.00
13015;BME280;6573;57.696;11.950;2022-08-03T13:21:19;100915.13;;;23.03;100.00